Orbital elements of CZ-4 DEB
| Launched | 2 September 1990 |
| Flight ended | – |
| Launch site | Taiyuan Space Center, PRC |
| Owner | People's Republic of China |
| NORAD ID | 20855 |
| Date fetched |
Epoch osculation |
Inc. [°] |
Ecc. | RA asc node [hr] |
Arg Peri. [°] |
Mean anom [°] |
Mean motion [rev/day] |
Abs. mag |
| Date fetched |
Epoch osculation |
Inc. [°] |
Ecc. | RA asc node [hr] |
Arg Peri. [°] |
Mean anom [°] |
Mean motion [rev/day] |
Abs. mag |
| 2026 May 04 17:57 | 2026 Apr 30 14:17:21 | 98.8275 | 0.00228 | 6.8648 | 270.7219 | 203.7685 | 14.09171 | 5.243 |
| 2026 May 03 17:57 | 2026 Apr 30 14:17:21 | 98.8275 | 0.00228 | 6.8648 | 270.7219 | 203.7685 | 14.09171 | 5.243 |
| 2026 May 02 17:57 | 2026 Apr 30 14:17:21 | 98.8275 | 0.00228 | 6.8648 | 270.7219 | 203.7685 | 14.09171 | 5.243 |
| 2026 May 01 17:56 | 2026 Apr 30 14:17:21 | 98.8275 | 0.00228 | 6.8648 | 270.7219 | 203.7685 | 14.09171 | 5.243 |
| 2026 Apr 30 17:56 | 2026 Apr 30 14:17:21 | 98.8275 | 0.00228 | 6.8648 | 270.7219 | 203.7685 | 14.09171 | 5.243 |
| 2026 Apr 29 17:57 | 2026 Apr 24 13:25:20 | 98.8273 | 0.00229 | 6.4704 | 288.5582 | 203.7685 | 14.09171 | 5.243 |
| 2026 Apr 28 17:56 | 2026 Apr 24 13:25:20 | 98.8273 | 0.00229 | 6.4704 | 288.5582 | 203.7685 | 14.09171 | 5.243 |
| 2026 Apr 27 17:58 | 2026 Apr 24 13:25:20 | 98.8273 | 0.00229 | 6.4704 | 288.5582 | 203.7685 | 14.09171 | 5.243 |
| 2026 Apr 26 17:58 | 2026 Apr 24 13:25:20 | 98.8273 | 0.00229 | 6.4704 | 288.5582 | 203.7685 | 14.09171 | 5.243 |
| 2026 Apr 25 17:58 | 2026 Apr 24 13:25:20 | 98.8273 | 0.00229 | 6.4704 | 288.5582 | 203.7685 | 14.09171 | 5.243 |
| 2026 Apr 24 17:59 | 2026 Apr 24 13:25:20 | 98.8273 | 0.00229 | 6.4704 | 288.5582 | 203.7685 | 14.09171 | 5.243 |
| 2026 Apr 23 17:57 | 2026 Apr 19 05:08:39 | 98.8271 | 0.00231 | 6.1212 | 304.2267 | 203.7685 | 14.09171 | 5.243 |
| 2026 Apr 22 17:57 | 2026 Apr 19 05:08:39 | 98.8271 | 0.00231 | 6.1212 | 304.2267 | 203.7685 | 14.09171 | 5.243 |
| 2026 Apr 21 17:57 | 2026 Apr 19 05:08:39 | 98.8271 | 0.00231 | 6.1212 | 304.2267 | 203.7685 | 14.09171 | 5.243 |
| 2026 Apr 20 17:57 | 2026 Apr 19 05:08:39 | 98.8271 | 0.00231 | 6.1212 | 304.2267 | 203.7685 | 14.09171 | 5.243 |
| 2026 Apr 19 17:58 | 2026 Apr 19 05:08:39 | 98.8271 | 0.00231 | 6.1212 | 304.2267 | 203.7685 | 14.09171 | 5.243 |
| 2026 Apr 18 17:56 | 2026 Apr 13 04:17:44 | 98.8263 | 0.00233 | 5.7270 | 321.8616 | 203.7685 | 14.09171 | 5.243 |
| 2026 Apr 16 17:57 | 2026 Apr 13 04:17:44 | 98.8263 | 0.00233 | 5.7270 | 321.8616 | 203.7685 | 14.09171 | 5.243 |
| 2026 Apr 14 17:57 | 2026 Apr 13 04:17:44 | 98.8263 | 0.00233 | 5.7270 | 321.8616 | 203.7685 | 14.09171 | 5.243 |
| 2026 Apr 13 17:57 | 2026 Apr 13 04:17:44 | 98.8263 | 0.00233 | 5.7270 | 321.8616 | 203.7685 | 14.09171 | 5.243 |
| 2026 Apr 12 17:57 | 2026 Apr 08 14:00:09 | 98.8260 | 0.00235 | 5.4268 | 334.9991 | 203.7685 | 14.09171 | 5.243 |
| 2026 Apr 11 17:57 | 2026 Apr 08 14:00:09 | 98.8260 | 0.00235 | 5.4268 | 334.9991 | 203.7685 | 14.09171 | 5.243 |
| 2026 Apr 10 17:58 | 2026 Apr 08 14:00:09 | 98.8260 | 0.00235 | 5.4268 | 334.9991 | 203.7685 | 14.09171 | 5.243 |
| 2026 Apr 09 18:01 | 2026 Apr 08 14:00:09 | 98.8260 | 0.00235 | 5.4268 | 334.9991 | 203.7685 | 14.09171 | 5.243 |
| 2026 Apr 08 17:57 | 2026 Apr 08 14:00:09 | 98.8260 | 0.00235 | 5.4268 | 334.9991 | 203.7685 | 14.09171 | 5.243 |
| 2026 Apr 07 17:57 | 2026 Apr 02 05:52:34 | 98.8256 | 0.00239 | 5.0128 | 353.0876 | 203.7685 | 14.09171 | 5.243 |